• Join FlightAware (Why Join?)
  • Login
  • US Flag 
07:47AM EDT


 

Airport Tracker/Info


-or-


 

Live Flight TrackerFlight Track Log ✈ DAL6036 ✈ 05-May-2013 ✈ KCHS - KDTW

Flight Track Log - Related Links

Times and Time Zones

All times are in EDT time to prevent confusion due to time zone crossing. See the DAL6036 flight status page for this flight to view local times or setup timezone preferences in your user account.

Time Position Orientation Groundspeed Altitude Reporting Facility
EDT Latitude Longitude Course Direction KTS MPH feet Rate Location/Type
05:13PM 33.0817 -80.1111 352° North 279 321 5,600  Level Jacksonville Center
05:14PM 33.2905 -80.2286 337° Northwest  Level FlightAware Approximate
05:14PM 33.1492 -80.1486 335° Northwest 286 329 7,600  Level Jacksonville Center
05:15PM 33.3921 -80.2794 337° Northwest  Level FlightAware Approximate
05:15PM 33.2272 -80.1858 338° Northwest 286 329 9,800  Level Jacksonville Center
05:16PM 33.4936 -80.3301 337° Northwest  Level FlightAware Approximate
05:16PM 33.3131 -80.2033 350° North 296 341 11,800  Level Jacksonville Center
05:17PM 33.5997 -80.3611 352° North  Level FlightAware Approximate
05:17PM 33.4011 -80.2206 351° North 307 353 13,200  Level Jacksonville Center
05:18PM 33.7092 -80.3710 352° North  Level FlightAware Approximate
05:18PM 33.4975 -80.2400 350° North 319 367 14,600  Level Jacksonville Center
05:19PM 33.8182 -80.3891 352° North  Level FlightAware Approximate
05:19PM 33.5939 -80.2594 350° North 342 394 16,100  Level Jacksonville Center
05:20PM 33.6925 -80.2792 351° North 354 407 17,600 1,500 Climbing Jacksonville Center
05:21PM 33.7908 -80.2961 352° North 354 407 19,200 1,380 Climbing Jacksonville Center
05:22PM 33.8914 -80.3181 350° North 354 407 20,400 1,200 Climbing Jacksonville Center
05:23PM 33.9942 -80.3378 351° North 359 413 21,600 1,200 Climbing Jacksonville Center
05:24PM 34.0989 -80.3597 350° North 370 426 22,800 1,200 Climbing Jacksonville Center
05:25PM 34.2078 -80.3817 351° North 375 432 24,100 1,260 Climbing Jacksonville Center
05:26PM 34.3125 -80.4014 351° North 375 432 25,400 1,320 Climbing Jacksonville Center
05:28PM 34.5664 -80.4544 350° North 379 436 28,500 1,260 Climbing Atlanta Center
05:29PM 34.6608 -80.4731 351° North 379 436 29,600 1,200 Climbing Atlanta Center
05:30PM 34.7678 -80.4939 351° North 379 436 30,900 1,200 Climbing Atlanta Center
05:31PM 34.8706 -80.5147 351° North 379 436 32,100 1,200 Climbing Atlanta Center
05:32PM 34.9756 -80.5331 352° North 374 430 33,400 900 Climbing Atlanta Center
05:33PM 35.0742 -80.5569 349° North 369 425 34,000 300 Climbing Atlanta Center
05:34PM 35.1833 -80.5778 351° North 384 442 34,000  Level Atlanta Center
05:35PM 35.3008 -80.6008 351° North 411 473 34,000  Level Atlanta Center
05:36PM 35.4225 -80.6261 350° North 430 495 34,000  Level Atlanta Center
05:37PM 35.5611 -80.6536 351° North 442 509 34,000  Level Atlanta Center
05:38PM 35.6911 -80.6789 351° North 459 528 34,000  Level Atlanta Center
05:39PM 35.8211 -80.7069 350° North 468 539 34,000  Level Atlanta Center
05:40PM 35.9511 -80.7322 351° North 468 539 34,000  Level Atlanta Center
05:41PM 36.0750 -80.7581 350° North 463 533 34,000  Level Atlanta Center
05:42PM 36.2050 -80.7864 350° North 468 539 34,000  Level Atlanta Center
05:43PM 36.3331 -80.8144 350° North 468 539 34,000  Level Atlanta Center
05:44PM 36.4631 -80.8403 351° North 468 539 34,000  Level Atlanta Center
05:45PM 36.5928 -80.8661 351° North 468 539 34,000  Level Atlanta Center
05:47PM 36.7756 -80.9078 350° North 473 544 34,000  Level Indianapolis Center
05:48PM 36.9264 -80.9414 350° North 470 541 34,000  Level Indianapolis Center
05:49PM 37.0517 -80.9658 351° North 468 539 34,000  Level Indianapolis Center
05:50PM 37.1758 -80.9936 350° North 465 535 34,000 420 Level Indianapolis Center
05:51PM 37.2992 -81.0200 350° North 459 528 34,900 960 Climbing Indianapolis Center
05:52PM 37.4442 -81.0514 350° North 452 520 36,000 480 Climbing Indianapolis Center
05:53PM 37.5636 -81.0772 350° North 447 514 36,000  Level Indianapolis Center
05:55PM 37.7060 -81.1049 351° North  Level FlightAware Approximate
05:55PM 37.8294 -81.1403 351° North 472 543 36,000  Level Indianapolis Center
05:56PM 37.9556 -81.1897 343° North 471 542 36,000  Level Indianapolis Center
05:58PM 38.0876 -81.2296 347° North  Level FlightAware Approximate
05:59PM 38.3269 -81.3244 343° North 460 529 36,000  Level Indianapolis Center
06:00PM 38.4522 -81.3297 358° North 454 522 36,000  Level Indianapolis Center
06:01PM 38.5992 -81.3325 359° North 446 513 36,000  Level Indianapolis Center
06:02PM 38.7203 -81.3361 359° North 444 511 36,000  Level Indianapolis Center
06:03PM 38.8408 -81.3381 359° North 440 506 36,000  Level Indianapolis Center
06:05PM 38.8243 -81.5168 343° North  Level FlightAware Approximate
06:05PM 38.9600 -81.3717 348° North 446 513 36,000  Level Indianapolis Center
06:07PM 39.2267 -81.4772 343° North 462 532 35,000 -360 Descending Indianapolis Center
06:08PM 39.3492 -81.5261 343° North 462 532 35,000  Level Indianapolis Center
06:09PM 39.4700 -81.5742 343° North 457 526 35,000  Level Indianapolis Center
06:10PM 39.5919 -81.6233 343° North 458 527 35,000 -60 Level Indianapolis Center
06:11PM 39.7314 -81.6775 343° North 458 527 34,900  Descending Indianapolis Center
06:12PM 39.8536 -81.7286 342° North 458 527 35,000  Climbing Indianapolis Center
06:13PM 39.9753 -81.7772 343° North 456 525 35,000 -480 Level Indianapolis Center
06:14PM 40.0983 -81.8281 342° North 459 528 34,100 -900 Descending Indianapolis Center
06:16PM 40.3439 -81.9281 343° North 453 521 32,300 -1,020 Descending Indianapolis Center
06:16PM 40.4092 -81.9547 343° North 442 509 31,600 -1,560 Descending Cleveland Center
06:17PM 40.5272 -82.0064 342° North 447 514 30,100 -840 Descending Cleveland Center
06:18PM 40.6478 -82.0308 351° North 436 502 30,000 -540 Descending Cleveland Center
06:19PM 40.7686 -82.0553 351° North 436 502 29,100 -3,000 Descending Cleveland Center
06:20PM 40.8994 -82.0775 353° North 451 519 24,000 -660 Descending Cleveland Center
06:21PM 41.0139 -82.0994 352° North 464 534 27,800 1,620 Climbing Cleveland Center
06:22PM 41.1367 -82.1242 351° North 453 521 27,300 -1,140 Descending Cleveland Center
06:23PM 41.2572 -82.1464 352° North 446 513 25,600 -1,740 Descending Cleveland Center
06:24PM 41.3856 -82.2078 340° North 439 505 23,900 -1,800 Descending Cleveland Center
06:25PM 41.4628 -82.3397 308° West 439 505 22,100 -2,100 Descending Cleveland Center
06:26PM 41.5358 -82.4639 308° West 429 494 19,700 -2,880 Descending Cleveland Center
06:27PM 41.6047 -82.5797 309° West 416 479 16,400 -3,360 Descending Cleveland Center
06:28PM 41.6556 -82.6619 310° West 402 463 14,000 -2,940 Descending Cleveland Center
06:28PM 41.6675 -82.6844 305° West 406 467 13,500 -1,920 Descending Cleveland Center
06:29PM 41.7242 -82.7783 309° West 370 426 12,100 -1,440 Descending Cleveland Center
06:29PM 41.7344 -82.7925 314° West 393 452 12,100 -180 Level Cleveland Center
06:30PM 41.7956 -82.8669 318° Northwest 348 400 11,900 -840 Descending Cleveland Center
06:31PM 41.8461 -82.9386 313° West 295 339 10,500 -1,680 Descending Cleveland Center
06:32PM 41.8836 -83.0375 297° West 274 315 8,600 -1,620 Descending Cleveland Center
06:33PM 41.9053 -83.0997 295° West 267 307 7,800 -1,020 Descending Cleveland Center
06:33PM 41.9111 -83.1194 292° West 273 314 7,600 -1,200 Descending Cleveland Center
06:34PM 41.9367 -83.1875 297° West 248 285 6,600 -1,200 Descending Cleveland Center
06:34PM 41.9406 -83.2017 290° West 259 298 6,400 -600 Descending Cleveland Center
06:35PM 41.9553 -83.2833 284° West 234 269 6,000 -780 Descending Cleveland Center
06:36PM 41.9742 -83.3594 288° West 242 278 5,100 -960 Descending Cleveland Center
06:36PM 41.9761 -83.3736 280° West 241 277 4,900 -960 Descending Cleveland Center
06:37PM 42.0244 -83.4344 317° Northwest 201 231 4,000 -840 Descending Cleveland Center
06:38PM 42.0706 -83.4336 North 176 203 3,400 -780 Descending Cleveland Center
06:39PM 42.1106 -83.4158 18° North 144 166 2,600 -840 Descending Cleveland Center
06:40PM 42.1467 -83.3922 26° Northeast 146 168 1,800 -840 Descending Cleveland Center
06:41PM 42.1806 -83.3628 33° Northeast 146 168 1,000 -840 Descending Cleveland Center